createdAt,value
2023-03-16T00:00:50.431Z,11.30
2023-03-16T00:03:21.466Z,11.07
2023-03-16T00:05:53.556Z,11.70
2023-03-16T00:08:21.862Z,11.07
2023-03-16T00:10:49.550Z,11.13
2023-03-16T00:13:24.509Z,11.47
2023-03-16T00:15:53.479Z,12.40
2023-03-16T00:18:21.554Z,11.83
2023-03-16T00:20:53.033Z,11.23
2023-03-16T00:23:21.691Z,10.80
2023-03-16T00:25:49.153Z,12.37
2023-03-16T00:28:16.785Z,12.07
2023-03-16T00:30:48.102Z,11.93
2023-03-16T00:33:14.999Z,11.63
2023-03-16T00:35:50.975Z,12.57
2023-03-16T00:38:19.000Z,10.93
2023-03-16T00:40:46.976Z,11.17
2023-03-16T00:43:19.250Z,11.87
2023-03-16T00:45:47.070Z,11.27
2023-03-16T00:48:14.961Z,11.27
2023-03-16T00:50:43.887Z,11.63
2023-03-16T00:53:11.697Z,12.13
2023-03-16T00:55:39.200Z,13.53
2023-03-16T00:58:06.839Z,12.43
2023-03-16T01:00:34.792Z,12.27
2023-03-16T01:03:01.712Z,12.23
2023-03-16T01:05:29.459Z,11.93
2023-03-16T01:07:57.201Z,12.17
2023-03-16T01:10:25.735Z,9.97
2023-03-16T01:12:56.361Z,11.40
2023-03-16T01:15:24.054Z,13.27
2023-03-16T01:17:52.548Z,11.83
2023-03-16T01:20:20.899Z,10.63
2023-03-16T01:22:48.426Z,11.00
2023-03-16T01:25:15.929Z,10.93
2023-03-16T01:27:44.001Z,10.50
2023-03-16T01:30:13.379Z,12.10
2023-03-16T01:32:41.362Z,12.10
2023-03-16T01:35:10.116Z,10.67
2023-03-16T01:37:37.589Z,12.33
2023-03-16T01:40:08.831Z,10.57
2023-03-16T01:42:47.150Z,11.33
2023-03-16T01:45:34.042Z,11.97
2023-03-16T01:48:01.823Z,11.77
2023-03-16T01:50:29.644Z,10.67
2023-03-16T01:52:57.486Z,12.20
2023-03-16T01:55:28.533Z,10.67
2023-03-16T01:57:56.829Z,10.43
2023-03-16T02:00:32.214Z,11.07
2023-03-16T02:03:03.291Z,10.87
2023-03-16T02:05:36.453Z,10.20
2023-03-16T02:08:04.859Z,11.20
2023-03-16T02:10:33.206Z,10.97
2023-03-16T02:13:01.572Z,11.03
2023-03-16T02:15:29.271Z,10.67
2023-03-16T02:17:58.509Z,11.60
2023-03-16T02:20:26.845Z,11.83
2023-03-16T02:22:55.118Z,11.40
2023-03-16T02:25:30.168Z,10.93
2023-03-16T02:28:07.041Z,11.03
2023-03-16T02:30:35.169Z,12.33
2023-03-16T02:33:04.041Z,11.97
2023-03-16T02:35:31.923Z,13.53
2023-03-16T02:37:59.586Z,9.73
2023-03-16T02:40:30.601Z,11.97
2023-03-16T02:43:06.654Z,11.13
2023-03-16T02:45:37.715Z,13.13
2023-03-16T02:48:08.125Z,11.93
2023-03-16T02:50:35.878Z,10.70
2023-03-16T02:53:03.361Z,11.07
2023-03-16T02:55:31.021Z,10.83
2023-03-16T02:57:58.451Z,12.00
2023-03-16T03:00:26.310Z,10.47
2023-03-16T03:02:54.250Z,9.97
2023-03-16T03:05:22.163Z,11.73
2023-03-16T03:07:49.614Z,10.37
2023-03-16T03:10:17.317Z,11.50
2023-03-16T03:12:45.011Z,11.70
2023-03-16T03:15:12.862Z,11.73
2023-03-16T03:17:41.260Z,10.83
2023-03-16T03:20:14.108Z,11.30
2023-03-16T03:22:41.626Z,10.55
2023-03-16T03:25:09.708Z,10.80
2023-03-16T03:27:37.454Z,11.10
2023-03-16T03:30:07.214Z,11.47
2023-03-16T03:32:34.981Z,10.67
2023-03-16T03:35:02.640Z,10.53
2023-03-16T03:37:30.152Z,11.10
2023-03-16T03:39:57.903Z,12.27
2023-03-16T03:42:25.501Z,11.87
2023-03-16T03:44:53.460Z,11.97
2023-03-16T03:47:21.702Z,11.50
2023-03-16T03:49:49.328Z,12.47
2023-03-16T03:52:16.867Z,11.50
2023-03-16T03:54:44.501Z,12.20
2023-03-16T03:57:12.078Z,10.23
2023-03-16T03:59:44.315Z,12.27
2023-03-16T04:02:12.588Z,11.93
2023-03-16T04:04:40.832Z,11.10
2023-03-16T04:07:08.345Z,12.53
2023-03-16T04:09:35.984Z,11.30
2023-03-16T04:12:04.629Z,12.30
2023-03-16T04:14:32.681Z,10.83
2023-03-16T04:17:00.307Z,12.13
2023-03-16T04:19:28.158Z,13.30
2023-03-16T04:21:55.657Z,11.30
2023-03-16T04:24:23.197Z,14.27
2023-03-16T04:26:50.622Z,11.53
2023-03-16T04:29:21.403Z,12.77
2023-03-16T04:31:47.945Z,12.87
2023-03-16T04:34:15.527Z,10.43
2023-03-16T04:36:43.016Z,12.70
2023-03-16T04:39:11.408Z,13.03
2023-03-16T04:41:38.954Z,11.10
2023-03-16T04:44:06.541Z,11.00
2023-03-16T04:46:34.493Z,10.27
2023-03-16T04:49:02.456Z,12.23
2023-03-16T04:51:30.110Z,11.40
2023-03-16T04:53:57.811Z,12.23
2023-03-16T04:56:24.534Z,11.53
2023-03-16T04:58:51.233Z,11.30
2023-03-16T05:01:19.176Z,11.50
2023-03-16T05:03:46.831Z,11.83
2023-03-16T05:06:13.371Z,14.17
2023-03-16T05:08:41.314Z,11.23
2023-03-16T05:11:09.022Z,10.43
2023-03-16T05:13:35.844Z,11.93
2023-03-16T05:16:02.668Z,11.63
2023-03-16T05:18:31.302Z,12.77
2023-03-16T05:20:58.690Z,12.40
2023-03-16T05:23:25.318Z,11.50
2023-03-16T05:25:51.872Z,11.60
2023-03-16T05:28:19.600Z,12.17
2023-03-16T05:30:46.412Z,11.80
2023-03-16T05:33:14.194Z,10.60
2023-03-16T05:35:41.883Z,12.47
2023-03-16T05:38:10.168Z,11.60
2023-03-16T05:40:37.994Z,12.57
2023-03-16T05:43:05.733Z,13.67
2023-03-16T05:45:32.414Z,16.53
2023-03-16T05:48:03.452Z,16.10
2023-03-16T05:50:31.713Z,21.53
2023-03-16T05:52:58.424Z,18.90
2023-03-16T05:55:25.864Z,18.63
2023-03-16T05:57:53.938Z,19.87
2023-03-16T06:00:21.150Z,18.73
2023-03-16T06:02:49.773Z,17.53
2023-03-16T06:05:17.678Z,21.13
2023-03-16T06:07:45.410Z,18.27
2023-03-16T06:10:12.565Z,21.73
2023-03-16T06:12:39.220Z,34.13
2023-03-16T06:15:08.623Z,25.30
2023-03-16T06:17:36.739Z,25.90
2023-03-16T06:20:10.450Z,17.93
2023-03-16T06:25:05.107Z,13.43
2023-03-16T06:27:32.018Z,11.85
2023-03-16T06:30:00.000Z,11.75
2023-03-16T06:32:27.262Z,12.30
2023-03-16T06:34:53.762Z,11.38
2023-03-16T06:37:20.255Z,11.07
2023-03-16T06:39:46.788Z,11.90
2023-03-16T06:42:13.364Z,9.88
2023-03-16T06:44:42.276Z,9.38
2023-03-16T06:47:09.183Z,9.00
2023-03-16T06:49:35.941Z,9.18
2023-03-16T06:52:04.339Z,9.30
2023-03-16T06:54:32.594Z,9.10
2023-03-16T06:56:59.135Z,9.25
2023-03-16T06:59:27.144Z,10.73
2023-03-16T07:01:54.798Z,9.02
2023-03-16T07:04:21.870Z,8.57
2023-03-16T07:06:49.710Z,9.50
2023-03-16T07:09:16.862Z,8.60
2023-03-16T07:11:45.968Z,8.95
2023-03-16T07:14:15.255Z,10.13
2023-03-16T07:16:41.805Z,9.35
2023-03-16T07:19:08.440Z,9.23
2023-03-16T07:21:40.278Z,7.85
2023-03-16T07:24:08.327Z,9.25
2023-03-16T07:26:35.144Z,10.38
2023-03-16T07:29:02.819Z,9.90
2023-03-16T07:31:29.307Z,8.82
2023-03-16T07:33:56.052Z,8.10
2023-03-16T07:36:23.557Z,8.38
2023-03-16T07:38:52.669Z,7.88
2023-03-16T07:41:19.254Z,6.80
2023-03-16T07:43:45.694Z,7.72
2023-03-16T07:46:15.822Z,7.20
2023-03-16T07:48:43.248Z,8.50
2023-03-16T07:51:10.673Z,6.90
2023-03-16T07:53:38.439Z,7.75
2023-03-16T07:56:05.230Z,16.70
2023-03-16T07:58:33.491Z,8.02
2023-03-16T08:01:01.803Z,7.72
2023-03-16T08:03:29.651Z,6.03
2023-03-16T08:05:57.260Z,7.63
2023-03-16T08:08:25.571Z,5.55
2023-03-16T08:10:53.828Z,6.18
2023-03-16T08:13:23.216Z,6.53
2023-03-16T08:15:59.139Z,5.90
2023-03-16T08:18:26.727Z,5.45
2023-03-16T08:20:53.306Z,5.25
2023-03-16T08:23:21.231Z,4.78
2023-03-16T08:25:52.752Z,4.53
2023-03-16T08:28:21.721Z,4.45
2023-03-16T08:30:51.202Z,4.15
2023-03-16T08:33:20.244Z,3.58
2023-03-16T08:35:50.968Z,4.53
2023-03-16T08:38:19.426Z,4.60
2023-03-16T08:40:49.204Z,5.00
2023-03-16T08:43:18.008Z,5.05
2023-03-16T08:45:49.441Z,4.07
2023-03-16T08:48:16.110Z,3.47
2023-03-16T08:50:44.806Z,3.17
2023-03-16T08:53:12.385Z,4.97
2023-03-16T08:55:38.946Z,4.95
2023-03-16T08:58:07.145Z,3.92
2023-03-16T09:00:36.038Z,4.20
2023-03-16T09:03:03.018Z,4.10
2023-03-16T09:05:31.320Z,4.32
2023-03-16T09:07:58.889Z,4.03
2023-03-16T09:10:26.400Z,4.32
2023-03-16T09:12:54.886Z,4.78
2023-03-16T09:15:21.718Z,4.43
2023-03-16T09:17:48.199Z,4.40
2023-03-16T09:20:33.436Z,4.47
2023-03-16T09:23:01.208Z,5.68
2023-03-16T09:25:28.249Z,5.25
2023-03-16T09:27:56.062Z,5.28
2023-03-16T09:30:23.709Z,4.72
2023-03-16T09:32:50.903Z,3.00
2023-03-16T09:35:17.787Z,3.92
2023-03-16T09:38:04.672Z,5.10
2023-03-16T09:40:32.190Z,5.03
2023-03-16T09:43:18.331Z,3.20
2023-03-16T09:45:53.064Z,3.42
2023-03-16T09:48:21.245Z,3.50
2023-03-16T09:50:49.852Z,2.88
2023-03-16T09:53:16.488Z,3.50
2023-03-16T09:55:45.246Z,3.75
2023-03-16T09:58:20.372Z,3.58
2023-03-16T10:01:00.000Z,3.30
2023-03-16T10:03:40.494Z,2.15
2023-03-16T10:06:10.596Z,2.30
2023-03-16T10:08:44.633Z,2.33
2023-03-16T10:11:21.964Z,2.20
2023-03-16T10:13:53.204Z,9.65
2023-03-16T10:16:25.896Z,3.10
2023-03-16T10:19:00.822Z,2.90
2023-03-16T10:21:28.604Z,2.25
2023-03-16T10:23:59.463Z,1.58
2023-03-16T10:26:29.113Z,1.48
2023-03-16T10:28:56.563Z,7.93
2023-03-16T10:31:25.508Z,2.92
2023-03-16T10:33:56.802Z,2.83
2023-03-16T10:36:28.097Z,4.20
2023-03-16T10:38:58.229Z,2.92
2023-03-16T10:41:30.378Z,3.28
2023-03-16T10:43:59.583Z,2.33
2023-03-16T10:46:28.216Z,3.20
2023-03-16T10:49:00.270Z,1.67
2023-03-16T10:51:31.076Z,2.00
2023-03-16T10:54:03.771Z,2.20
2023-03-16T10:56:32.917Z,2.58
2023-03-16T10:59:00.479Z,1.90
2023-03-16T11:01:29.741Z,2.55
2023-03-16T11:03:57.511Z,3.25
2023-03-16T11:06:31.266Z,2.70
2023-03-16T11:11:32.111Z,2.78
2023-03-16T11:14:00.670Z,3.13
2023-03-16T11:16:31.527Z,2.70
2023-03-16T11:19:01.043Z,2.33
2023-03-16T11:21:39.254Z,1.95
2023-03-16T11:24:12.940Z,1.92
2023-03-16T11:26:43.472Z,2.05
2023-03-16T11:29:11.918Z,2.28
2023-03-16T11:31:43.687Z,1.90
2023-03-16T11:34:14.700Z,21.80
2023-03-16T11:36:42.531Z,3.92
2023-03-16T11:39:15.884Z,2.70
2023-03-16T11:41:49.375Z,2.42
2023-03-16T11:44:17.240Z,3.63
2023-03-16T11:47:17.473Z,2.53
2023-03-16T11:50:03.355Z,2.33
2023-03-16T11:52:45.362Z,2.25
2023-03-16T11:55:38.930Z,2.22
2023-03-16T11:58:12.853Z,2.40
2023-03-16T12:00:45.655Z,2.72
2023-03-16T12:03:13.658Z,3.10
2023-03-16T12:05:48.743Z,3.72
2023-03-16T12:08:15.276Z,2.90
2023-03-16T12:10:47.723Z,3.38
2023-03-16T12:13:31.072Z,3.10
2023-03-16T12:16:06.584Z,2.60
2023-03-16T12:18:44.417Z,3.30
2023-03-16T12:21:19.337Z,3.90
2023-03-16T12:23:54.817Z,2.75
2023-03-16T12:26:24.033Z,2.67
2023-03-16T12:28:52.294Z,2.40
2023-03-16T12:31:37.659Z,2.63
2023-03-16T12:34:08.439Z,2.00
2023-03-16T12:36:41.357Z,2.25
2023-03-16T12:39:24.295Z,2.17
2023-03-16T12:41:56.826Z,1.80
2023-03-16T12:44:31.744Z,3.35
2023-03-16T12:47:16.655Z,2.35
2023-03-16T12:49:45.061Z,2.22
2023-03-16T12:52:13.759Z,1.70
2023-03-16T12:54:55.570Z,2.40
2023-03-16T12:57:25.338Z,4.88
2023-03-16T12:59:58.420Z,2.05
2023-03-16T13:02:27.428Z,1.33
2023-03-16T13:05:10.738Z,1.90
2023-03-16T13:07:40.145Z,1.58
2023-03-16T13:10:13.310Z,1.85
2023-03-16T13:12:43.856Z,2.22
2023-03-16T13:15:26.297Z,4.32
2023-03-16T13:18:17.668Z,2.13
2023-03-16T13:21:02.553Z,3.03
2023-03-16T13:23:51.296Z,2.17
2023-03-16T13:26:23.515Z,1.73
2023-03-16T13:28:52.575Z,1.90
2023-03-16T13:31:35.673Z,1.90
2023-03-16T13:34:05.088Z,2.07
2023-03-16T13:36:33.614Z,1.80
2023-03-16T13:39:07.710Z,1.63
2023-03-16T13:41:35.668Z,1.40
2023-03-16T13:44:05.714Z,1.65
2023-03-16T13:46:33.645Z,1.58
2023-03-16T13:49:01.238Z,1.90
2023-03-16T13:51:30.191Z,1.73
2023-03-16T13:53:57.662Z,1.70
2023-03-16T13:56:27.508Z,1.98
2023-03-16T13:58:58.585Z,1.58
2023-03-16T14:01:33.706Z,1.88
2023-03-16T14:04:09.707Z,2.75
2023-03-16T14:06:38.807Z,1.65
2023-03-16T14:09:08.866Z,1.60
2023-03-16T14:11:36.694Z,2.40
2023-03-16T14:14:14.699Z,1.48
2023-03-16T14:16:43.410Z,1.65
2023-03-16T14:19:26.946Z,1.55
2023-03-16T14:21:55.448Z,1.33
2023-03-16T14:24:33.899Z,1.38
2023-03-16T14:27:18.696Z,1.50
2023-03-16T14:29:46.894Z,2.13
2023-03-16T14:32:29.508Z,2.53
2023-03-16T14:35:13.785Z,1.58
2023-03-16T14:37:41.375Z,1.42
2023-03-16T14:40:22.246Z,1.80
2023-03-16T14:42:48.807Z,1.63
2023-03-16T14:45:17.402Z,11.50
2023-03-16T14:47:46.836Z,5.85
2023-03-16T14:50:17.705Z,2.00
2023-03-16T14:52:46.680Z,1.55
2023-03-16T14:55:16.367Z,1.85
2023-03-16T14:57:46.374Z,1.73
2023-03-16T15:00:15.494Z,2.25
2023-03-16T15:02:47.714Z,2.63
2023-03-16T15:05:23.380Z,2.05
2023-03-16T15:07:54.901Z,1.80
2023-03-16T15:10:23.016Z,1.60
2023-03-16T15:13:04.466Z,2.30
2023-03-16T15:15:32.798Z,2.08
2023-03-16T15:18:00.215Z,1.70
2023-03-16T15:20:35.453Z,1.15
2023-03-16T15:23:04.090Z,1.50
2023-03-16T15:25:36.656Z,1.40
2023-03-16T15:28:18.158Z,2.33
2023-03-16T15:30:46.181Z,2.25
2023-03-16T15:33:14.173Z,2.28
2023-03-16T15:35:42.499Z,2.20
2023-03-16T15:38:15.021Z,2.30
2023-03-16T15:40:44.102Z,2.08
2023-03-16T15:43:13.081Z,1.60
2023-03-16T15:45:41.723Z,1.70
2023-03-16T15:48:10.993Z,1.80
2023-03-16T15:50:39.128Z,2.47
2023-03-16T15:53:10.192Z,1.73
2023-03-16T15:55:40.726Z,1.50
2023-03-16T15:58:10.859Z,1.65
2023-03-16T16:00:39.155Z,1.92
2023-03-16T16:03:07.333Z,2.15
2023-03-16T16:05:35.019Z,1.88
2023-03-16T16:08:02.491Z,1.65
2023-03-16T16:10:31.091Z,2.03
2023-03-16T16:12:59.970Z,2.55
2023-03-16T16:15:34.622Z,2.08
2023-03-16T16:18:20.380Z,3.00
2023-03-16T16:20:48.605Z,2.25
2023-03-16T16:23:16.463Z,2.30
2023-03-16T16:25:43.070Z,2.05
2023-03-16T16:28:17.779Z,2.35
2023-03-16T16:30:45.977Z,2.90
2023-03-16T16:33:27.579Z,3.45
2023-03-16T16:35:54.852Z,3.60
2023-03-16T16:38:23.238Z,3.53
2023-03-16T16:40:51.268Z,4.03
2023-03-16T16:43:42.448Z,4.40
2023-03-16T16:46:16.323Z,3.72
2023-03-16T16:48:46.445Z,4.25
2023-03-16T16:51:18.215Z,4.05
2023-03-16T16:53:46.845Z,3.33
2023-03-16T16:56:16.314Z,3.55
2023-03-16T16:58:43.856Z,2.90
2023-03-16T17:01:14.429Z,2.78
2023-03-16T17:03:42.917Z,3.72
2023-03-16T17:06:16.566Z,3.35
2023-03-16T17:08:45.130Z,4.22
2023-03-16T17:11:22.532Z,4.18
2023-03-16T17:13:50.358Z,6.32
2023-03-16T17:16:17.520Z,9.70
2023-03-16T17:18:45.828Z,8.80
2023-03-16T17:21:18.163Z,12.10
2023-03-16T17:23:44.932Z,11.93
2023-03-16T17:26:20.840Z,15.48
2023-03-16T17:28:55.465Z,18.75
2023-03-16T17:31:24.696Z,17.40
2023-03-16T17:33:53.343Z,18.80
2023-03-16T17:36:21.889Z,20.07
2023-03-16T17:38:50.857Z,21.07
2023-03-16T17:41:27.491Z,34.80
2023-03-16T17:43:56.071Z,27.83
2023-03-16T17:46:26.401Z,27.10
2023-03-16T17:48:54.592Z,29.77
2023-03-16T17:51:22.712Z,25.87
2023-03-16T17:53:50.550Z,25.90
2023-03-16T17:56:19.997Z,33.50
2023-03-16T17:58:48.188Z,41.20
2023-03-16T18:01:17.347Z,43.17
2023-03-16T18:03:47.063Z,37.23
2023-03-16T18:06:26.167Z,22.93
2023-03-16T18:08:54.386Z,21.33
2023-03-16T18:11:47.132Z,16.10
2023-03-16T18:14:37.929Z,21.40
2023-03-16T18:17:25.056Z,27.33
2023-03-16T18:19:53.322Z,34.90
2023-03-16T18:22:22.446Z,27.10
2023-03-16T18:24:51.024Z,33.90
2023-03-16T18:27:18.871Z,29.93
2023-03-16T18:29:49.554Z,16.50
2023-03-16T18:32:23.203Z,9.17
2023-03-16T18:34:52.530Z,7.72
2023-03-16T18:37:25.036Z,13.97
2023-03-16T18:39:54.181Z,14.43
2023-03-16T18:42:23.132Z,43.13
2023-03-16T18:44:51.902Z,193.87
2023-03-16T18:47:21.285Z,72.53
2023-03-16T18:49:54.965Z,58.40
2023-03-16T18:54:50.367Z,37.77
2023-03-16T18:57:23.177Z,27.73
2023-03-16T18:59:51.728Z,14.48
2023-03-16T19:02:29.161Z,10.03
2023-03-16T19:04:58.644Z,9.77
2023-03-16T19:07:38.815Z,7.83
2023-03-16T19:10:10.205Z,7.87
2023-03-16T19:12:38.523Z,9.33
2023-03-16T19:15:36.034Z,20.10
2023-03-16T19:18:02.916Z,22.53
2023-03-16T19:20:30.723Z,22.97
2023-03-16T19:23:06.334Z,20.00
2023-03-16T19:25:38.345Z,20.13
2023-03-16T19:28:07.337Z,20.57
2023-03-16T19:30:34.978Z,16.17
2023-03-16T19:33:02.843Z,9.47
2023-03-16T19:35:44.902Z,19.83
2023-03-16T19:38:19.231Z,30.27
2023-03-16T19:40:49.865Z,32.50
2023-03-16T19:43:19.140Z,35.87
2023-03-16T19:45:48.310Z,32.27
2023-03-16T19:48:21.227Z,23.10
2023-03-16T19:50:50.429Z,21.38
2023-03-16T19:53:20.854Z,31.60
2023-03-16T19:55:49.172Z,38.07
2023-03-16T19:58:31.215Z,36.60
2023-03-16T20:00:59.909Z,36.37
2023-03-16T20:03:27.554Z,31.43
2023-03-16T20:05:55.507Z,24.70
2023-03-16T20:08:23.816Z,17.53
2023-03-16T20:10:51.853Z,14.57
2023-03-16T20:13:19.860Z,13.83
2023-03-16T20:15:48.409Z,26.97
2023-03-16T20:18:17.196Z,30.13
2023-03-16T20:20:45.023Z,20.80
2023-03-16T20:23:18.734Z,20.33
2023-03-16T20:28:19.774Z,23.57
2023-03-16T20:30:48.062Z,19.52
2023-03-16T20:33:19.058Z,22.57
2023-03-16T20:35:47.619Z,34.20
2023-03-16T20:38:16.313Z,22.70
2023-03-16T20:40:45.924Z,9.80
2023-03-16T20:43:30.243Z,12.03
2023-03-16T20:45:58.355Z,14.33
2023-03-16T20:48:26.088Z,13.73
2023-03-16T20:50:56.902Z,13.33
2023-03-16T20:53:24.723Z,9.03
2023-03-16T20:55:53.330Z,5.20
2023-03-16T20:58:23.236Z,4.90
2023-03-16T21:00:51.886Z,5.40
2023-03-16T21:03:24.067Z,16.90
2023-03-16T21:05:52.572Z,20.33
2023-03-16T21:08:20.567Z,34.77
2023-03-16T21:10:49.495Z,9.37
2023-03-16T21:13:29.746Z,5.97
2023-03-16T21:15:58.830Z,8.80
2023-03-16T21:18:26.708Z,7.30
2023-03-16T21:20:54.757Z,19.93
2023-03-16T21:23:23.577Z,20.73
2023-03-16T21:25:52.000Z,32.60
2023-03-16T21:28:21.018Z,31.27
2023-03-16T21:30:53.004Z,27.27
2023-03-16T21:33:26.651Z,18.03
2023-03-16T21:35:54.163Z,18.58
2023-03-16T21:38:22.351Z,16.30
2023-03-16T21:40:50.374Z,9.20
2023-03-16T21:43:18.312Z,7.20
2023-03-16T21:45:47.801Z,7.30
2023-03-16T21:48:21.372Z,7.60
2023-03-16T21:50:50.645Z,8.70
2023-03-16T21:53:22.833Z,9.60
2023-03-16T21:55:51.652Z,6.60
2023-03-16T21:58:20.033Z,6.43
2023-03-16T22:00:48.237Z,7.20
2023-03-16T22:03:29.585Z,8.63
2023-03-16T22:06:01.685Z,12.93
2023-03-16T22:08:33.539Z,29.13
2023-03-16T22:11:02.480Z,48.43
2023-03-16T22:13:30.414Z,54.77
2023-03-16T22:15:58.429Z,55.40
2023-03-16T22:18:26.933Z,46.40
2023-03-16T22:20:54.881Z,48.77
2023-03-16T22:23:30.299Z,45.20
2023-03-16T22:25:58.066Z,40.47
2023-03-16T22:28:26.880Z,37.97
2023-03-16T22:30:55.413Z,34.77
2023-03-16T22:33:25.601Z,32.17
2023-03-16T22:35:53.601Z,36.30
2023-03-16T22:38:22.308Z,39.07
2023-03-16T22:40:50.063Z,34.93
2023-03-16T22:43:19.293Z,29.23
2023-03-16T22:45:47.369Z,22.67
2023-03-16T22:48:22.968Z,19.97
2023-03-16T22:50:51.417Z,14.93
2023-03-16T22:53:26.286Z,13.00
2023-03-16T22:55:54.122Z,12.90
2023-03-16T22:58:33.375Z,12.73
2023-03-16T23:01:03.506Z,20.23
2023-03-16T23:03:33.733Z,20.97
2023-03-16T23:06:01.334Z,18.63
2023-03-16T23:08:29.427Z,14.47
2023-03-16T23:10:57.342Z,12.03
2023-03-16T23:13:26.067Z,10.23
2023-03-16T23:15:54.172Z,10.10
2023-03-16T23:18:22.210Z,10.00
2023-03-16T23:20:50.370Z,11.17
2023-03-16T23:23:18.719Z,9.13
2023-03-16T23:25:48.407Z,11.27
2023-03-16T23:28:21.897Z,9.83
2023-03-16T23:30:48.948Z,11.80
2023-03-16T23:33:17.139Z,22.43
2023-03-16T23:35:47.274Z,20.10
2023-03-16T23:38:15.308Z,19.53
2023-03-16T23:40:43.369Z,18.73
2023-03-16T23:43:10.885Z,22.13
2023-03-16T23:45:45.621Z,17.33
2023-03-16T23:48:20.606Z,11.90
2023-03-16T23:50:53.361Z,17.10
2023-03-16T23:53:21.341Z,22.13
2023-03-16T23:55:49.806Z,24.20
2023-03-16T23:58:17.407Z,22.67
